createdAt,value
2023-04-17T00:01:37.819Z,101221.48
2023-04-17T00:03:50.773Z,101217.99
2023-04-17T00:06:03.655Z,101217.44
2023-04-17T00:08:16.060Z,101216.94
2023-04-17T00:10:29.009Z,101217.08
2023-04-17T00:12:41.840Z,101219.31
2023-04-17T00:14:54.579Z,101225.18
2023-04-17T00:17:07.197Z,101232.25
2023-04-17T00:19:19.721Z,101224.15
2023-04-17T00:21:33.386Z,101225.77
2023-04-17T00:23:46.967Z,101237.14
2023-04-17T00:25:59.615Z,101246.69
2023-04-17T00:28:12.229Z,101264.39
2023-04-17T00:30:25.493Z,101263.55
2023-04-17T00:32:38.815Z,101267.29
2023-04-17T00:34:54.421Z,101266.08
2023-04-17T00:37:08.580Z,101266.02
2023-04-17T00:39:21.040Z,101263.64
2023-04-17T00:41:33.642Z,101265.32
2023-04-17T00:43:46.530Z,101260.23
2023-04-17T00:45:59.909Z,101264.45
2023-04-17T00:48:14.478Z,101268.75
2023-04-17T00:50:27.723Z,101271.57
2023-04-17T00:52:41.775Z,101272.00
2023-04-17T00:54:54.505Z,101278.70
2023-04-17T00:57:07.603Z,101284.05
2023-04-17T00:59:22.670Z,101281.59
2023-04-17T01:01:35.290Z,101284.70
2023-04-17T01:03:48.563Z,101286.05
2023-04-17T01:06:02.526Z,101290.77
2023-04-17T01:08:17.552Z,101295.29
2023-04-17T01:10:30.428Z,101291.61
2023-04-17T01:12:47.535Z,101308.46
2023-04-17T01:15:01.278Z,101311.99
2023-04-17T01:17:15.435Z,101312.32
2023-04-17T01:19:30.072Z,101312.79
2023-04-17T01:21:42.766Z,101311.86
2023-04-17T01:23:57.429Z,101318.14
2023-04-17T01:26:15.690Z,101326.69
2023-04-17T01:28:28.370Z,101318.30
2023-04-17T01:30:41.366Z,101324.33
2023-04-17T01:32:57.546Z,101330.34
2023-04-17T01:35:10.807Z,101332.14
2023-04-17T01:37:24.645Z,101335.31
2023-04-17T01:39:37.267Z,101338.85
2023-04-17T01:41:50.024Z,101350.21
2023-04-17T01:44:02.808Z,101350.17
2023-04-17T01:46:15.949Z,101354.38
2023-04-17T01:48:29.007Z,101354.06
2023-04-17T01:50:41.932Z,101361.55
2023-04-17T01:52:54.712Z,101360.09
2023-04-17T01:55:09.068Z,101363.52
2023-04-17T01:57:22.474Z,101358.48
2023-04-17T01:59:35.441Z,101354.37
2023-04-17T02:01:49.247Z,101356.08
2023-04-17T02:04:02.767Z,101349.91
2023-04-17T02:06:15.842Z,101350.98
2023-04-17T02:08:30.917Z,101352.59
2023-04-17T02:10:44.827Z,101355.27
2023-04-17T02:12:57.953Z,101352.09
2023-04-17T02:15:13.211Z,101352.38
2023-04-17T02:17:26.112Z,101353.01
2023-04-17T02:19:38.742Z,101357.84
2023-04-17T02:21:51.457Z,101352.14
2023-04-17T02:24:04.038Z,101356.15
2023-04-17T02:26:17.611Z,101363.73
2023-04-17T02:28:30.510Z,101371.39
2023-04-17T02:30:48.153Z,101375.72
2023-04-17T02:33:01.402Z,101376.34
2023-04-17T02:35:14.990Z,101377.73
2023-04-17T02:37:27.880Z,101373.11
2023-04-17T02:39:40.571Z,101376.70
2023-04-17T02:41:53.338Z,101378.18
2023-04-17T02:44:06.770Z,101381.05
2023-04-17T02:46:19.344Z,101382.45
2023-04-17T02:48:31.934Z,101386.73
2023-04-17T02:50:44.541Z,101387.31
2023-04-17T02:53:02.389Z,101390.08
2023-04-17T02:55:16.528Z,101394.21
2023-04-17T02:57:29.493Z,101392.20
2023-04-17T02:59:42.477Z,101391.16
2023-04-17T03:01:55.068Z,101395.51
2023-04-17T03:04:07.886Z,101397.13
2023-04-17T03:06:20.373Z,101398.10
2023-04-17T03:08:36.882Z,101402.73
2023-04-17T03:10:49.708Z,101403.59
2023-04-17T03:13:04.469Z,101405.98
2023-04-17T03:15:18.397Z,101410.24
2023-04-17T03:17:31.536Z,101410.10
2023-04-17T03:19:45.266Z,101412.02
2023-04-17T03:21:58.483Z,101411.66
2023-04-17T03:24:13.935Z,101409.66
2023-04-17T03:26:26.834Z,101411.54
2023-04-17T03:28:40.333Z,101413.77
2023-04-17T03:30:53.019Z,101407.58
2023-04-17T03:33:06.118Z,101410.52
2023-04-17T03:35:18.898Z,101408.31
2023-04-17T03:37:33.170Z,101409.36
2023-04-17T03:39:45.951Z,101409.64
2023-04-17T03:42:00.554Z,101410.67
2023-04-17T03:44:14.328Z,101413.66
2023-04-17T03:46:27.493Z,101415.08
2023-04-17T03:48:40.607Z,101412.55
2023-04-17T03:50:54.385Z,101412.23
2023-04-17T03:53:08.074Z,101413.09
2023-04-17T03:55:21.041Z,101415.58
2023-04-17T03:57:34.804Z,101417.79
2023-04-17T03:59:49.042Z,101423.98
2023-04-17T04:02:02.607Z,101419.96
2023-04-17T04:04:18.253Z,101422.84
2023-04-17T04:06:32.711Z,101422.27
2023-04-17T04:08:46.476Z,101426.63
2023-04-17T04:10:59.651Z,101424.56
2023-04-17T04:13:19.768Z,101421.69
2023-04-17T04:15:37.168Z,101427.20
2023-04-17T04:17:50.793Z,101421.87
2023-04-17T04:20:03.946Z,101428.27
2023-04-17T04:22:16.712Z,101426.63
2023-04-17T04:24:36.392Z,101424.80
2023-04-17T04:26:50.888Z,101423.20
2023-04-17T04:29:03.543Z,101427.73
2023-04-17T04:31:32.822Z,101425.02
2023-04-17T04:33:47.231Z,101427.52
2023-04-17T04:36:02.525Z,101427.66
2023-04-17T04:38:16.469Z,101423.66
2023-04-17T04:40:31.809Z,101415.61
2023-04-17T04:42:51.050Z,101421.16
2023-04-17T04:45:10.291Z,101421.41
2023-04-17T04:47:23.984Z,101417.73
2023-04-17T04:49:36.753Z,101418.75
2023-04-17T04:51:49.433Z,101419.79
2023-04-17T04:54:03.237Z,101425.11
2023-04-17T04:56:16.738Z,101426.23
2023-04-17T04:58:31.576Z,101426.17
2023-04-17T05:00:46.152Z,101426.94
2023-04-17T05:03:04.150Z,101427.59
2023-04-17T05:05:17.142Z,101429.61
2023-04-17T05:07:30.586Z,101429.14
2023-04-17T05:09:44.062Z,101436.27
2023-04-17T05:11:58.365Z,101426.23
2023-04-17T05:14:12.310Z,101426.38
2023-04-17T05:16:24.944Z,101424.99
2023-04-17T05:18:38.448Z,101418.54
2023-04-17T05:20:52.021Z,101416.70
2023-04-17T05:23:05.186Z,101416.19
2023-04-17T05:25:18.245Z,101414.69
2023-04-17T05:27:31.161Z,101410.16
2023-04-17T05:29:44.093Z,101404.89
2023-04-17T05:31:57.254Z,101398.02
2023-04-17T05:34:26.614Z,101399.66
2023-04-17T05:36:39.880Z,101394.89
2023-04-17T05:38:54.000Z,101389.99
2023-04-17T05:41:08.544Z,101384.05
2023-04-17T05:43:22.570Z,101373.31
2023-04-17T05:45:37.951Z,101371.08
2023-04-17T05:47:53.739Z,101368.96
2023-04-17T05:50:06.678Z,101365.72
2023-04-17T05:52:19.104Z,101362.83
2023-04-17T05:54:32.154Z,101359.44
2023-04-17T05:56:44.742Z,101357.13
2023-04-17T05:58:57.874Z,101354.11
2023-04-17T06:01:11.416Z,101347.30
2023-04-17T06:03:25.076Z,101347.52
2023-04-17T06:05:45.421Z,101344.05
2023-04-17T06:07:58.121Z,101338.59
2023-04-17T06:10:11.829Z,101334.17
2023-04-17T06:12:24.650Z,101332.60
2023-04-17T06:14:38.269Z,101332.12
2023-04-17T06:16:51.699Z,101331.45
2023-04-17T06:19:05.487Z,101331.40
2023-04-17T06:21:18.086Z,101329.67
2023-04-17T06:23:31.281Z,101340.35
2023-04-17T06:25:44.092Z,101334.94
2023-04-17T06:27:58.331Z,101332.60
2023-04-17T06:30:13.042Z,101333.42
2023-04-17T06:32:34.430Z,101331.44
2023-04-17T06:37:08.450Z,101328.59
2023-04-17T06:39:24.248Z,101330.31
2023-04-17T06:41:36.977Z,101327.91
2023-04-17T06:43:49.482Z,101326.88
2023-04-17T06:46:02.486Z,101325.14
2023-04-17T06:48:18.957Z,101320.59
2023-04-17T06:50:32.151Z,101322.77
2023-04-17T06:52:44.834Z,101321.19
2023-04-17T06:54:58.577Z,101317.88
2023-04-17T06:57:11.845Z,101314.52
2023-04-17T06:59:24.459Z,101310.53
2023-04-17T07:01:39.119Z,101306.77
2023-04-17T07:03:52.464Z,101303.38
2023-04-17T07:06:05.787Z,101296.91
2023-04-17T07:08:20.542Z,101301.14
2023-04-17T07:10:33.281Z,101295.90
2023-04-17T07:12:46.015Z,101298.48
2023-04-17T07:14:59.214Z,101295.04
2023-04-17T07:17:12.179Z,101291.38
2023-04-17T07:19:25.013Z,101296.25
2023-04-17T07:21:37.816Z,101292.29
2023-04-17T07:23:50.766Z,101288.32
2023-04-17T07:26:03.605Z,101286.88
2023-04-17T07:28:16.540Z,101283.88
2023-04-17T07:30:29.691Z,101280.48
2023-04-17T07:32:43.184Z,101282.91
2023-04-17T07:34:56.407Z,101276.59
2023-04-17T07:37:09.190Z,101277.13
2023-04-17T07:39:22.139Z,101273.27
2023-04-17T07:41:35.224Z,101267.23
2023-04-17T07:43:48.204Z,101270.73
2023-04-17T07:46:01.511Z,101266.98
2023-04-17T07:48:14.602Z,101263.23
2023-04-17T07:50:27.670Z,101258.45
2023-04-17T07:52:40.612Z,101259.51
2023-04-17T07:54:53.381Z,101256.30
2023-04-17T07:57:06.313Z,101251.91
2023-04-17T07:59:19.213Z,101252.67
2023-04-17T08:01:33.054Z,101251.48
2023-04-17T08:03:45.975Z,101244.30
2023-04-17T08:05:59.903Z,101243.08
2023-04-17T08:08:12.661Z,101243.76
2023-04-17T08:10:28.510Z,101240.59
2023-04-17T08:12:41.210Z,101241.74
2023-04-17T08:14:53.874Z,101243.60
2023-04-17T08:17:08.459Z,101242.70
2023-04-17T08:19:21.416Z,101242.22
2023-04-17T08:21:34.199Z,101246.03
2023-04-17T08:23:46.942Z,101242.73
2023-04-17T08:26:01.306Z,101235.73
2023-04-17T08:28:13.866Z,101233.23
2023-04-17T08:30:26.957Z,101233.31
2023-04-17T08:32:46.426Z,101224.73
2023-04-17T08:35:00.802Z,101222.08
2023-04-17T08:37:13.383Z,101218.02
2023-04-17T08:39:26.399Z,101217.80
2023-04-17T08:41:42.837Z,101212.02
2023-04-17T08:43:55.600Z,101207.23
2023-04-17T08:46:09.151Z,101205.70
2023-04-17T08:48:21.901Z,101203.14
2023-04-17T08:50:35.851Z,101199.35
2023-04-17T08:52:49.533Z,101193.66
2023-04-17T08:55:04.692Z,101189.81
2023-04-17T08:57:17.156Z,101187.89
2023-04-17T08:59:29.887Z,101184.77
2023-04-17T09:01:43.141Z,101181.20
2023-04-17T09:03:57.349Z,101174.30
2023-04-17T09:06:11.246Z,101175.67
2023-04-17T09:08:25.469Z,101172.92
2023-04-17T09:10:44.040Z,101169.61
2023-04-17T09:13:06.808Z,101168.04
2023-04-17T09:15:26.286Z,101162.07
2023-04-17T09:17:41.428Z,101156.70
2023-04-17T09:20:12.857Z,101152.77
2023-04-17T09:22:26.052Z,101149.59
2023-04-17T09:24:41.657Z,101144.66
2023-04-17T09:26:54.946Z,101136.29
2023-04-17T09:29:14.494Z,101133.12
2023-04-17T09:31:36.363Z,101132.31
2023-04-17T09:34:02.580Z,101127.29
2023-04-17T09:36:28.281Z,101115.98
2023-04-17T09:38:45.941Z,101115.76
2023-04-17T09:40:58.816Z,101107.66
2023-04-17T09:43:13.475Z,101107.01
2023-04-17T09:45:29.394Z,101100.58
2023-04-17T09:47:42.923Z,101099.39
2023-04-17T09:49:56.974Z,101096.56
2023-04-17T09:52:10.055Z,101098.70
2023-04-17T09:54:24.172Z,101098.61
2023-04-17T09:56:38.810Z,101097.96
2023-04-17T09:58:51.776Z,101101.41
2023-04-17T10:04:05.658Z,101101.02
2023-04-17T10:06:39.062Z,101096.75
2023-04-17T10:09:02.154Z,101092.23
2023-04-17T10:11:25.386Z,101091.80
2023-04-17T10:13:41.689Z,101086.14
2023-04-17T10:15:57.648Z,101084.70
2023-04-17T10:18:30.692Z,101082.30
2023-04-17T10:21:27.378Z,101073.61
2023-04-17T10:23:49.880Z,101065.54
2023-04-17T10:26:45.578Z,101071.75
2023-04-17T10:29:19.560Z,101067.67
2023-04-17T10:32:30.315Z,101063.75
2023-04-17T10:34:46.487Z,101063.83
2023-04-17T10:36:59.804Z,101058.95
2023-04-17T10:39:51.386Z,101056.27
2023-04-17T10:42:26.745Z,101058.55
2023-04-17T10:44:42.406Z,101054.61
2023-04-17T10:47:08.447Z,101051.59
2023-04-17T10:49:32.474Z,101044.98
2023-04-17T10:51:48.405Z,101043.38
2023-04-17T10:54:16.529Z,101041.38
2023-04-17T10:56:33.334Z,101042.59
2023-04-17T10:59:05.894Z,101041.23
2023-04-17T11:01:58.963Z,101043.36
2023-04-17T11:04:35.076Z,101043.44
2023-04-17T11:07:08.461Z,101039.98
2023-04-17T11:09:41.329Z,101037.13
2023-04-17T11:12:15.338Z,101035.98
2023-04-17T11:15:01.033Z,101033.13
2023-04-17T11:17:27.119Z,101025.23
2023-04-17T11:19:51.234Z,101025.57
2023-04-17T11:22:24.646Z,101022.75
2023-04-17T11:24:58.490Z,101025.03
2023-04-17T11:27:15.634Z,101024.50
2023-04-17T11:29:48.954Z,101025.48
2023-04-17T11:32:16.560Z,101022.84
2023-04-17T11:34:49.837Z,101023.71
2023-04-17T11:37:22.904Z,101017.15
2023-04-17T11:39:56.280Z,101007.19
2023-04-17T11:42:33.770Z,101003.20
2023-04-17T11:45:14.399Z,101001.60
2023-04-17T11:47:50.478Z,100994.17
2023-04-17T11:50:03.329Z,100988.71
2023-04-17T11:52:22.375Z,100987.02
2023-04-17T11:55:03.613Z,100982.59
2023-04-17T11:57:25.513Z,100980.40
2023-04-17T11:59:48.910Z,100975.71
2023-04-17T12:02:35.539Z,100970.91
2023-04-17T12:04:48.943Z,100968.48
2023-04-17T12:07:29.131Z,100967.76
2023-04-17T12:10:00.644Z,100962.02
2023-04-17T12:12:26.092Z,100961.02
2023-04-17T12:15:00.268Z,100950.88
2023-04-17T12:17:15.875Z,100946.69
2023-04-17T12:19:49.489Z,100941.99
2023-04-17T12:22:12.549Z,100942.98
2023-04-17T12:24:35.482Z,100937.23
2023-04-17T12:27:08.373Z,100934.70
2023-04-17T12:29:40.589Z,100929.60
2023-04-17T12:32:07.258Z,100925.95
2023-04-17T12:34:40.117Z,100922.55
2023-04-17T12:37:12.993Z,100913.46
2023-04-17T12:39:39.016Z,100913.56
2023-04-17T12:42:01.897Z,100897.32
2023-04-17T12:44:34.887Z,100901.00
2023-04-17T12:47:07.785Z,100900.20
2023-04-17T12:49:40.534Z,100887.74
2023-04-17T12:52:03.686Z,100886.46
2023-04-17T12:54:37.086Z,100887.02
2023-04-17T12:57:08.633Z,100882.98
2023-04-17T12:59:41.489Z,100886.22
2023-04-17T13:02:05.723Z,100874.91
2023-04-17T13:04:38.625Z,100873.30
2023-04-17T13:07:11.728Z,100867.02
2023-04-17T13:09:35.821Z,100863.36
2023-04-17T13:12:08.930Z,100863.04
2023-04-17T13:14:42.051Z,100858.54
2023-04-17T13:17:17.007Z,100856.84
2023-04-17T13:19:34.658Z,100848.84
2023-04-17T13:21:47.842Z,100844.33
2023-04-17T13:24:17.359Z,100840.84
2023-04-17T13:26:50.669Z,100833.02
2023-04-17T13:29:23.707Z,100827.82
2023-04-17T13:31:36.657Z,100820.83
2023-04-17T13:33:53.050Z,100815.27
2023-04-17T13:36:25.962Z,100815.02
2023-04-17T13:38:39.027Z,100810.83
2023-04-17T13:40:53.637Z,100805.91
2023-04-17T13:43:07.168Z,100814.10
2023-04-17T13:45:30.311Z,100808.77
2023-04-17T13:48:03.164Z,100797.46
2023-04-17T13:50:36.095Z,100792.19
2023-04-17T13:52:52.399Z,100789.60
2023-04-17T13:55:05.846Z,100789.28
2023-04-17T13:57:38.801Z,100778.98
2023-04-17T14:00:13.662Z,100788.52
2023-04-17T14:02:46.607Z,100782.27
2023-04-17T14:05:11.468Z,100782.02
2023-04-17T14:07:44.350Z,100773.10
2023-04-17T14:10:08.707Z,100778.23
2023-04-17T14:12:22.864Z,100779.81
2023-04-17T14:14:39.217Z,100774.74
2023-04-17T14:17:02.428Z,100776.84
2023-04-17T14:19:26.653Z,100773.45
2023-04-17T14:21:50.913Z,100760.27
2023-04-17T14:24:07.160Z,100757.11
2023-04-17T14:26:41.024Z,100759.07
2023-04-17T14:28:54.181Z,100755.73
2023-04-17T14:31:06.906Z,100751.77
2023-04-17T14:33:39.669Z,100738.77
2023-04-17T14:35:57.904Z,100738.92
2023-04-17T14:38:31.566Z,100728.79
2023-04-17T14:41:04.618Z,100724.76
2023-04-17T14:43:37.519Z,100718.89
2023-04-17T14:46:10.312Z,100714.56
2023-04-17T14:48:41.108Z,100709.88
2023-04-17T14:51:22.309Z,100702.05
2023-04-17T14:53:45.459Z,100703.25
2023-04-17T14:56:56.003Z,100696.02
2023-04-17T14:59:09.208Z,100691.11
2023-04-17T15:01:42.007Z,100687.23
2023-04-17T15:03:58.429Z,100688.80
2023-04-17T15:06:31.594Z,100688.25
2023-04-17T15:09:04.313Z,100693.30
2023-04-17T15:11:17.398Z,100681.30
2023-04-17T15:13:30.358Z,100674.81
2023-04-17T15:15:54.781Z,100671.55
2023-04-17T15:18:17.786Z,100674.02
2023-04-17T15:20:50.651Z,100663.48
2023-04-17T15:23:04.026Z,100658.76
2023-04-17T15:25:30.572Z,100657.58
2023-04-17T15:28:03.506Z,100662.04
2023-04-17T15:30:18.650Z,100652.96
2023-04-17T15:32:50.740Z,100654.09
2023-04-17T15:35:14.482Z,100643.55
2023-04-17T15:37:38.352Z,100648.87
2023-04-17T15:40:03.454Z,100643.38
2023-04-17T15:42:19.612Z,100642.07
2023-04-17T15:44:36.405Z,100643.98
2023-04-17T15:46:52.612Z,100634.10
2023-04-17T15:49:09.435Z,100629.83
2023-04-17T15:51:32.706Z,100622.17
2023-04-17T15:54:05.392Z,100615.56
2023-04-17T15:56:38.226Z,100608.63
2023-04-17T15:59:03.695Z,100607.30
2023-04-17T16:01:37.301Z,100599.80
2023-04-17T16:03:54.759Z,100588.61
2023-04-17T16:06:17.682Z,100577.12
2023-04-17T16:08:30.848Z,100574.30
2023-04-17T16:10:47.804Z,100557.82
2023-04-17T16:13:00.890Z,100554.24
2023-04-17T16:15:33.813Z,100553.86
2023-04-17T16:17:46.937Z,100550.30
2023-04-17T16:20:06.436Z,100539.01
2023-04-17T16:22:19.395Z,100539.83
2023-04-17T16:24:38.972Z,100531.31
2023-04-17T16:27:12.175Z,100523.91
2023-04-17T16:29:35.011Z,100516.17
2023-04-17T16:32:08.664Z,100505.24
2023-04-17T16:34:41.323Z,100501.42
2023-04-17T16:36:54.257Z,100503.81
2023-04-17T16:39:10.524Z,100493.77
2023-04-17T16:41:43.387Z,100486.84
2023-04-17T16:43:59.371Z,100486.88
2023-04-17T16:46:26.196Z,100478.09
2023-04-17T16:48:51.464Z,100474.33
2023-04-17T16:51:08.849Z,100464.84
2023-04-17T16:53:22.418Z,100462.45
2023-04-17T16:55:35.135Z,100460.70
2023-04-17T16:57:49.079Z,100459.79
2023-04-17T17:03:01.706Z,100461.10
2023-04-17T17:05:36.708Z,100447.98
2023-04-17T17:08:09.447Z,100438.67
2023-04-17T17:10:22.463Z,100423.42
2023-04-17T17:12:45.009Z,100413.93
2023-04-17T17:14:57.835Z,100405.64
2023-04-17T17:17:31.128Z,100391.66
2023-04-17T17:19:43.905Z,100381.39
2023-04-17T17:22:07.878Z,100383.48
2023-04-17T17:24:30.748Z,100377.86
2023-04-17T17:26:46.685Z,100379.66
2023-04-17T17:29:09.633Z,100385.35
2023-04-17T17:31:31.923Z,100376.34
2023-04-17T17:34:16.275Z,100362.05
2023-04-17T17:36:38.348Z,100359.30
2023-04-17T17:38:56.578Z,100355.95
2023-04-17T17:41:19.177Z,100353.21
2023-04-17T17:43:51.846Z,100342.45
2023-04-17T17:46:25.469Z,100340.48
2023-04-17T17:48:49.508Z,100339.23
2023-04-17T17:51:23.954Z,100334.56
2023-04-17T17:53:39.775Z,100336.63
2023-04-17T17:56:15.775Z,100331.96
2023-04-17T17:58:38.466Z,100336.19
2023-04-17T18:01:11.252Z,100331.41
2023-04-17T18:03:38.256Z,100319.69
2023-04-17T18:06:11.741Z,100309.71
2023-04-17T18:08:35.458Z,100309.53
2023-04-17T18:11:09.123Z,100311.55
2023-04-17T18:13:41.856Z,100311.48
2023-04-17T18:16:15.326Z,100311.38
2023-04-17T18:18:33.517Z,100313.13
2023-04-17T18:20:59.817Z,100321.23
2023-04-17T18:23:12.654Z,100325.49
2023-04-17T18:25:28.705Z,100340.56
2023-04-17T18:28:00.541Z,100355.92
2023-04-17T18:30:14.827Z,100359.85
2023-04-17T18:32:32.201Z,100369.79
2023-04-17T18:35:05.449Z,100365.05
2023-04-17T18:37:38.875Z,100360.74
2023-04-17T18:39:55.189Z,100341.31
2023-04-17T18:42:17.599Z,100354.30
2023-04-17T18:44:39.995Z,100352.63
2023-04-17T18:46:52.820Z,100347.98
2023-04-17T18:49:18.971Z,100356.56
2023-04-17T18:51:34.526Z,100346.30
2023-04-17T18:53:58.624Z,100365.38
2023-04-17T18:56:31.719Z,100373.59
2023-04-17T18:59:04.616Z,100356.11
2023-04-17T19:01:17.580Z,100352.07
2023-04-17T19:03:31.855Z,100346.98
2023-04-17T19:06:04.619Z,100346.55
2023-04-17T19:08:28.585Z,100353.38
2023-04-17T19:10:44.905Z,100358.20
2023-04-17T19:13:11.197Z,100356.70
2023-04-17T19:15:24.507Z,100359.67
2023-04-17T19:17:47.336Z,100356.17
2023-04-17T19:20:11.920Z,100347.17
2023-04-17T19:22:44.771Z,100351.98
2023-04-17T19:25:04.278Z,100348.11
2023-04-17T19:27:31.521Z,100346.02
2023-04-17T19:29:50.384Z,100332.59
2023-04-17T19:32:18.052Z,100334.08
2023-04-17T19:34:31.196Z,100333.89
2023-04-17T19:36:45.222Z,100336.08
2023-04-17T19:39:02.675Z,100332.11
2023-04-17T19:41:23.012Z,100322.14
2023-04-17T19:43:46.088Z,100323.58
2023-04-17T19:46:02.407Z,100317.95
2023-04-17T19:48:37.378Z,100316.27
2023-04-17T19:51:11.671Z,100315.73
2023-04-17T19:53:37.181Z,100314.33
2023-04-17T19:55:54.000Z,100319.25
2023-04-17T19:58:16.919Z,100310.85
2023-04-17T20:00:43.892Z,100308.63
2023-04-17T20:03:17.176Z,100310.55
2023-04-17T20:05:30.397Z,100313.17
2023-04-17T20:07:46.522Z,100301.96
2023-04-17T20:10:17.895Z,100293.79
2023-04-17T20:12:50.802Z,100291.92
2023-04-17T20:15:03.687Z,100282.41
2023-04-17T20:17:19.485Z,100273.20
2023-04-17T20:19:43.458Z,100276.18
2023-04-17T20:21:59.532Z,100264.71
2023-04-17T20:24:32.513Z,100270.36
2023-04-17T20:26:51.774Z,100271.52
2023-04-17T20:29:14.931Z,100279.70
2023-04-17T20:31:38.049Z,100284.55
2023-04-17T20:34:02.830Z,100296.68
2023-04-17T20:36:16.415Z,100306.25
2023-04-17T20:38:30.371Z,100316.80
2023-04-17T20:41:03.516Z,100335.22
2023-04-17T20:43:27.427Z,100354.47
2023-04-17T20:46:00.257Z,100377.05
2023-04-17T20:48:33.210Z,100382.10
2023-04-17T20:50:56.349Z,100389.55
2023-04-17T20:53:29.270Z,100390.73
2023-04-17T20:55:42.549Z,100394.57
2023-04-17T20:58:06.008Z,100395.98
2023-04-17T21:00:30.202Z,100394.34
2023-04-17T21:03:03.655Z,100387.16
2023-04-17T21:05:37.020Z,100381.17
2023-04-17T21:08:11.551Z,100373.39
2023-04-17T21:10:24.366Z,100371.02
2023-04-17T21:12:57.972Z,100368.20
2023-04-17T21:15:31.151Z,100357.16
2023-04-17T21:18:04.370Z,100345.67
2023-04-17T21:20:18.201Z,100345.84
2023-04-17T21:22:42.803Z,100360.56
2023-04-17T21:24:58.774Z,100357.37
2023-04-17T21:27:31.889Z,100353.61
2023-04-17T21:30:05.192Z,100354.26
2023-04-17T21:32:32.655Z,100360.08
2023-04-17T21:34:48.989Z,100356.38
2023-04-17T21:37:21.956Z,100353.95
2023-04-17T21:39:54.624Z,100343.23
2023-04-17T21:42:11.049Z,100340.08
2023-04-17T21:44:34.682Z,100333.45
2023-04-17T21:46:49.284Z,100342.97
2023-04-17T21:49:25.945Z,100345.08
2023-04-17T21:51:48.576Z,100337.98
2023-04-17T21:54:12.608Z,100323.92
2023-04-17T21:56:26.407Z,100329.98
2023-04-17T21:58:59.050Z,100326.62
2023-04-17T22:01:32.139Z,100323.42
2023-04-17T22:04:05.324Z,100313.39
2023-04-17T22:06:40.485Z,100303.13
2023-04-17T22:08:53.989Z,100302.58
2023-04-17T22:11:29.310Z,100301.88
2023-04-17T22:14:02.844Z,100290.95
2023-04-17T22:16:16.561Z,100282.88
2023-04-17T22:18:45.978Z,100271.50
2023-04-17T22:21:18.795Z,100270.20
2023-04-17T22:23:51.654Z,100266.06
2023-04-17T22:26:15.430Z,100264.59
2023-04-17T22:28:37.770Z,100256.73
2023-04-17T22:31:02.457Z,100260.69
2023-04-17T22:33:35.638Z,100281.05
2023-04-17T22:36:08.658Z,100284.48
2023-04-17T22:38:33.723Z,100275.17
2023-04-17T22:41:09.204Z,100275.54
2023-04-17T22:43:32.450Z,100282.52
2023-04-17T22:46:05.195Z,100289.54
2023-04-17T22:48:38.891Z,100286.02
2023-04-17T22:50:54.663Z,100284.21
2023-04-17T22:53:10.419Z,100271.48
2023-04-17T22:55:37.276Z,100265.64
2023-04-17T22:57:53.138Z,100255.33
2023-04-17T23:00:27.351Z,100259.05
2023-04-17T23:02:44.861Z,100260.58
2023-04-17T23:04:57.959Z,100254.98
2023-04-17T23:07:23.945Z,100237.18
2023-04-17T23:09:37.323Z,100240.94
2023-04-17T23:12:03.745Z,100245.91
2023-04-17T23:14:27.416Z,100243.92
2023-04-17T23:16:43.309Z,100238.41
2023-04-17T23:18:57.031Z,100229.19
2023-04-17T23:21:19.012Z,100227.81
2023-04-17T23:23:35.260Z,100219.50
2023-04-17T23:25:51.877Z,100219.68
2023-04-17T23:28:31.447Z,100229.14
2023-04-17T23:30:44.470Z,100215.45
2023-04-17T23:33:08.393Z,100225.46
2023-04-17T23:35:41.208Z,100228.79
2023-04-17T23:38:14.376Z,100221.88
2023-04-17T23:40:47.520Z,100228.93
2023-04-17T23:43:21.325Z,100214.39
2023-04-17T23:45:37.247Z,100212.79
2023-04-17T23:47:50.118Z,100201.73
2023-04-17T23:50:09.994Z,100208.66
2023-04-17T23:52:33.930Z,100208.52
2023-04-17T23:54:49.730Z,100212.58
2023-04-17T23:57:03.312Z,100208.44
2023-04-17T23:59:36.941Z,100206.52
